sensor_id;sensor_type;location;lat;lon;timestamp;pressure;altitude;pressure_sealevel;temperature;humidity
63903;BME280;50072;50.678;13.938;2022-10-01T00:02:27;99325.59;;;4.65;99.78
63903;BME280;50072;50.678;13.938;2022-10-01T00:04:54;99331.78;;;4.68;100.00
63903;BME280;50072;50.678;13.938;2022-10-01T00:07:26;99318.53;;;4.64;99.15
63903;BME280;50072;50.678;13.938;2022-10-01T00:09:54;99323.00;;;4.61;98.02
63903;BME280;50072;50.678;13.938;2022-10-01T00:12:26;99327.41;;;4.57;97.71
63903;BME280;50072;50.678;13.938;2022-10-01T00:14:54;99327.44;;;4.54;98.45
63903;BME280;50072;50.678;13.938;2022-10-01T00:17:24;99325.69;;;4.56;98.50
63903;BME280;50072;50.678;13.938;2022-10-01T00:19:56;99325.66;;;4.59;99.99
63903;BME280;50072;50.678;13.938;2022-10-01T00:22:24;99334.47;;;4.61;99.88
63903;BME280;50072;50.678;13.938;2022-10-01T00:24:54;99338.91;;;4.59;97.81
63903;BME280;50072;50.678;13.938;2022-10-01T00:27:26;99325.69;;;4.56;97.83
63903;BME280;50072;50.678;13.938;2022-10-01T00:29:54;99332.72;;;4.60;98.13
63903;BME280;50072;50.678;13.938;2022-10-01T00:32:23;99322.09;;;4.63;98.76
63903;BME280;50072;50.678;13.938;2022-10-01T00:34:54;99326.47;;;4.71;99.49
63903;BME280;50072;50.678;13.938;2022-10-01T00:37:25;99325.56;;;4.72;98.93
63903;BME280;50072;50.678;13.938;2022-10-01T00:39:54;99320.28;;;4.73;98.79
63903;BME280;50072;50.678;13.938;2022-10-01T00:42:25;99322.03;;;4.71;99.00
63903;BME280;50072;50.678;13.938;2022-10-01T00:44:57;99316.75;;;4.70;98.55
63903;BME280;50072;50.678;13.938;2022-10-01T00:47:45;99313.22;;;4.64;98.68
63903;BME280;50072;50.678;13.938;2022-10-01T00:50:26;99315.91;;;4.60;98.48
63903;BME280;50072;50.678;13.938;2022-10-01T00:52:59;99302.69;;;4.57;99.01
63903;BME280;50072;50.678;13.938;2022-10-01T00:55:49;99300.91;;;4.57;99.59
63903;BME280;50072;50.678;13.938;2022-10-01T00:58:24;99302.72;;;4.55;99.55
63903;BME280;50072;50.678;13.938;2022-10-01T01:00:57;99313.31;;;4.55;98.58
63903;BME280;50072;50.678;13.938;2022-10-01T01:03:25;99315.06;;;4.56;99.36
63903;BME280;50072;50.678;13.938;2022-10-01T01:05:57;99313.28;;;4.58;99.91
63903;BME280;50072;50.678;13.938;2022-10-01T01:08:24;99310.59;;;4.61;100.00
63903;BME280;50072;50.678;13.938;2022-10-01T01:11:16;99311.50;;;4.63;100.00
63903;BME280;50072;50.678;13.938;2022-10-01T01:14:23;99319.41;;;4.68;100.00
63903;BME280;50072;50.678;13.938;2022-10-01T01:17:00;99317.59;;;4.75;100.00
63903;BME280;50072;50.678;13.938;2022-10-01T01:22:29;99306.88;;;4.87;100.00
63903;BME280;50072;50.678;13.938;2022-10-01T01:25:20;99302.44;;;4.92;100.00
63903;BME280;50072;50.678;13.938;2022-10-01T01:30:59;99303.22;;;5.04;100.00
63903;BME280;50072;50.678;13.938;2022-10-01T01:33:35;99307.63;;;5.08;100.00
63903;BME280;50072;50.678;13.938;2022-10-01T01:36:18;99308.47;;;5.11;100.00
63903;BME280;50072;50.678;13.938;2022-10-01T01:39:01;99313.75;;;5.13;100.00
63903;BME280;50072;50.678;13.938;2022-10-01T01:41:48;99310.19;;;5.15;100.00
63903;BME280;50072;50.678;13.938;2022-10-01T01:44:27;99303.97;;;5.18;100.00
63903;BME280;50072;50.678;13.938;2022-10-01T01:47:07;99303.09;;;5.21;100.00
63903;BME280;50072;50.678;13.938;2022-10-01T01:49:46;99295.09;;;5.22;100.00
63903;BME280;50072;50.678;13.938;2022-10-01T01:52:15;99283.59;;;5.20;100.00
63903;BME280;50072;50.678;13.938;2022-10-01T01:54:45;99283.59;;;5.23;100.00
63903;BME280;50072;50.678;13.938;2022-10-01T01:57:18;99282.69;;;5.26;100.00
63903;BME280;50072;50.678;13.938;2022-10-01T01:59:46;99280.94;;;5.25;100.00
63903;BME280;50072;50.678;13.938;2022-10-01T02:02:29;99280.88;;;5.29;100.00
63903;BME280;50072;50.678;13.938;2022-10-01T02:05:11;99288.84;;;5.29;100.00
63903;BME280;50072;50.678;13.938;2022-10-01T02:16:43;99281.81;;;5.25;100.00
63903;BME280;50072;50.678;13.938;2022-10-01T02:22:30;99289.75;;;5.25;100.00
63903;BME280;50072;50.678;13.938;2022-10-01T02:25:05;99288.00;;;5.27;100.00
63903;BME280;50072;50.678;13.938;2022-10-01T02:27:48;99280.03;;;5.27;100.00
63903;BME280;50072;50.678;13.938;2022-10-01T02:30:24;99284.44;;;5.28;100.00
63903;BME280;50072;50.678;13.938;2022-10-01T02:32:58;99280.00;;;5.30;100.00
63903;BME280;50072;50.678;13.938;2022-10-01T02:35:45;99287.94;;;5.33;100.00
63903;BME280;50072;50.678;13.938;2022-10-01T02:38:14;99279.06;;;5.34;100.00
63903;BME280;50072;50.678;13.938;2022-10-01T02:40:57;99277.28;;;5.36;100.00
63903;BME280;50072;50.678;13.938;2022-10-01T02:44:09;99272.84;;;5.40;100.00
63903;BME280;50072;50.678;13.938;2022-10-01T02:49:27;99275.44;;;5.45;100.00
63903;BME280;50072;50.678;13.938;2022-10-01T02:55:00;99267.44;;;5.48;100.00
63903;BME280;50072;50.678;13.938;2022-10-01T02:57:28;99274.47;;;5.52;100.00
63903;BME280;50072;50.678;13.938;2022-10-01T02:59:57;99264.69;;;5.54;100.00
63903;BME280;50072;50.678;13.938;2022-10-01T03:02:25;99267.31;;;5.56;100.00
63903;BME280;50072;50.678;13.938;2022-10-01T03:04:59;99262.00;;;5.57;100.00
63903;BME280;50072;50.678;13.938;2022-10-01T03:07:44;99266.41;;;5.60;100.00
63903;BME280;50072;50.678;13.938;2022-10-01T03:10:24;99274.34;;;5.61;100.00
63903;BME280;50072;50.678;13.938;2022-10-01T03:12:54;99269.03;;;5.61;100.00
63903;BME280;50072;50.678;13.938;2022-10-01T03:15:24;99270.81;;;5.62;100.00
63903;BME280;50072;50.678;13.938;2022-10-01T03:17:56;99261.94;;;5.63;100.00
63903;BME280;50072;50.678;13.938;2022-10-01T03:20:24;99266.34;;;5.67;100.00
63903;BME280;50072;50.678;13.938;2022-10-01T03:22:54;99270.72;;;5.68;100.00
63903;BME280;50072;50.678;13.938;2022-10-01T03:25:24;99276.03;;;5.72;100.00
63903;BME280;50072;50.678;13.938;2022-10-01T03:27:55;99278.66;;;5.73;100.00
63903;BME280;50072;50.678;13.938;2022-10-01T03:30:24;99276.00;;;5.73;100.00
63903;BME280;50072;50.678;13.938;2022-10-01T03:32:54;99278.63;;;5.76;100.00
63903;BME280;50072;50.678;13.938;2022-10-01T03:35:24;99275.97;;;5.75;100.00
63903;BME280;50072;50.678;13.938;2022-10-01T03:37:54;99273.28;;;5.78;100.00
63903;BME280;50072;50.678;13.938;2022-10-01T03:40:25;99268.81;;;5.80;100.00
63903;BME280;50072;50.678;13.938;2022-10-01T03:42:54;99250.31;;;5.74;100.00
63903;BME280;50072;50.678;13.938;2022-10-01T03:45:25;99256.47;;;5.77;100.00
63903;BME280;50072;50.678;13.938;2022-10-01T03:47:54;99249.38;;;5.78;100.00
63903;BME280;50072;50.678;13.938;2022-10-01T03:50:24;99259.06;;;5.82;100.00
63903;BME280;50072;50.678;13.938;2022-10-01T03:52:56;99260.78;;;5.86;100.00
63903;BME280;50072;50.678;13.938;2022-10-01T03:55:24;99253.75;;;5.83;100.00
63903;BME280;50072;50.678;13.938;2022-10-01T03:57:57;99257.22;;;5.87;100.00
63903;BME280;50072;50.678;13.938;2022-10-01T04:00:24;99254.59;;;5.84;100.00
63903;BME280;50072;50.678;13.938;2022-10-01T04:02:54;99268.75;;;5.87;100.00
63903;BME280;50072;50.678;13.938;2022-10-01T04:05:25;99266.09;;;5.86;100.00
63903;BME280;50072;50.678;13.938;2022-10-01T04:07:54;99266.09;;;5.87;100.00
63903;BME280;50072;50.678;13.938;2022-10-01T04:10:26;99266.09;;;5.86;100.00
63903;BME280;50072;50.678;13.938;2022-10-01T04:12:54;99264.34;;;5.85;100.00
63903;BME280;50072;50.678;13.938;2022-10-01T04:15:27;99252.00;;;5.81;100.00
63903;BME280;50072;50.678;13.938;2022-10-01T04:17:54;99258.13;;;5.87;100.00
63903;BME280;50072;50.678;13.938;2022-10-01T04:20:24;99256.34;;;5.86;100.00
63903;BME280;50072;50.678;13.938;2022-10-01T04:22:54;99258.16;;;5.86;100.00
63903;BME280;50072;50.678;13.938;2022-10-01T04:25:24;99259.03;;;5.85;100.00
63903;BME280;50072;50.678;13.938;2022-10-01T04:28:03;99252.88;;;5.83;100.00
63903;BME280;50072;50.678;13.938;2022-10-01T04:30:45;99249.31;;;5.82;100.00
63903;BME280;50072;50.678;13.938;2022-10-01T04:33:24;99244.00;;;5.82;100.00
63903;BME280;50072;50.678;13.938;2022-10-01T04:35:54;99243.13;;;5.82;100.00
63903;BME280;50072;50.678;13.938;2022-10-01T04:38:25;99236.94;;;5.81;100.00
63903;BME280;50072;50.678;13.938;2022-10-01T04:40:54;99232.53;;;5.82;100.00
63903;BME280;50072;50.678;13.938;2022-10-01T04:43:24;99226.31;;;5.80;100.00
63903;BME280;50072;50.678;13.938;2022-10-01T04:45:57;99221.06;;;5.77;100.00
63903;BME280;50072;50.678;13.938;2022-10-01T04:48:24;99216.63;;;5.76;100.00
63903;BME280;50072;50.678;13.938;2022-10-01T04:50:54;99221.94;;;5.76;100.00
63903;BME280;50072;50.678;13.938;2022-10-01T04:53:24;99226.41;;;5.75;100.00
63903;BME280;50072;50.678;13.938;2022-10-01T04:55:54;99228.16;;;5.76;100.00
63903;BME280;50072;50.678;13.938;2022-10-01T04:58:20;99233.50;;;5.75;100.00
63903;BME280;50072;50.678;13.938;2022-10-01T05:00:54;99233.50;;;5.75;100.00
63903;BME280;50072;50.678;13.938;2022-10-01T05:03:24;99221.22;;;5.66;100.00
63903;BME280;50072;50.678;13.938;2022-10-01T05:05:54;99239.69;;;5.74;100.00
63903;BME280;50072;50.678;13.938;2022-10-01T05:08:26;99237.03;;;5.75;100.00
63903;BME280;50072;50.678;13.938;2022-10-01T05:10:52;99239.66;;;5.77;100.00
63903;BME280;50072;50.678;13.938;2022-10-01T05:13:24;99239.69;;;5.75;100.00
63903;BME280;50072;50.678;13.938;2022-10-01T05:15:54;99236.16;;;5.75;100.00
63903;BME280;50072;50.678;13.938;2022-10-01T05:18:24;99225.56;;;5.72;100.00
63903;BME280;50072;50.678;13.938;2022-10-01T05:20:54;99229.91;;;5.79;100.00
63903;BME280;50072;50.678;13.938;2022-10-01T05:23:24;99220.16;;;5.78;100.00
63903;BME280;50072;50.678;13.938;2022-10-01T05:25:54;99219.25;;;5.82;100.00
63903;BME280;50072;50.678;13.938;2022-10-01T05:28:22;99221.81;;;5.88;100.00
63903;BME280;50072;50.678;13.938;2022-10-01T05:30:54;99224.41;;;5.91;100.00
63903;BME280;50072;50.678;13.938;2022-10-01T05:33:24;99229.63;;;6.02;100.00
63903;BME280;50072;50.678;13.938;2022-10-01T05:35:55;99231.38;;;6.04;100.00
63903;BME280;50072;50.678;13.938;2022-10-01T05:38:24;99224.22;;;6.08;100.00
63903;BME280;50072;50.678;13.938;2022-10-01T05:40:54;99231.31;;;6.08;100.00
63903;BME280;50072;50.678;13.938;2022-10-01T05:43:24;99230.38;;;6.12;100.00
63903;BME280;50072;50.678;13.938;2022-10-01T05:45:54;99233.88;;;6.14;100.00
63903;BME280;50072;50.678;13.938;2022-10-01T05:48:24;99233.00;;;6.13;100.00
63903;BME280;50072;50.678;13.938;2022-10-01T05:50:57;99229.53;;;6.08;99.55
63903;BME280;50072;50.678;13.938;2022-10-01T05:53:24;99230.56;;;5.98;99.99
63903;BME280;50072;50.678;13.938;2022-10-01T05:55:54;99218.13;;;6.00;100.00
63903;BME280;50072;50.678;13.938;2022-10-01T05:58:24;99214.56;;;6.02;100.00
63903;BME280;50072;50.678;13.938;2022-10-01T06:00:56;99209.25;;;6.02;100.00
63903;BME280;50072;50.678;13.938;2022-10-01T06:03:24;99214.50;;;6.09;100.00
63903;BME280;50072;50.678;13.938;2022-10-01T06:05:54;99219.72;;;6.15;100.00
63903;BME280;50072;50.678;13.938;2022-10-01T06:08:20;99216.06;;;6.22;100.00
63903;BME280;50072;50.678;13.938;2022-10-01T06:10:47;99211.59;;;6.26;100.00
63903;BME280;50072;50.678;13.938;2022-10-01T06:13:14;99216.00;;;6.25;100.00
63903;BME280;50072;50.678;13.938;2022-10-01T06:15:43;99209.75;;;6.29;100.00
63903;BME280;50072;50.678;13.938;2022-10-01T06:18:11;99211.47;;;6.33;100.00
63903;BME280;50072;50.678;13.938;2022-10-01T06:20:38;99203.50;;;6.33;100.00
63903;BME280;50072;50.678;13.938;2022-10-01T06:23:08;99212.28;;;6.38;100.00
63903;BME280;50072;50.678;13.938;2022-10-01T06:25:35;99212.44;;;6.28;99.16
63903;BME280;50072;50.678;13.938;2022-10-01T06:28:03;99206.19;;;6.30;99.64
63903;BME280;50072;50.678;13.938;2022-10-01T06:30:31;99202.63;;;6.31;99.84
63903;BME280;50072;50.678;13.938;2022-10-01T06:33:05;99201.63;;;6.40;100.00
63903;BME280;50072;50.678;13.938;2022-10-01T06:35:32;99206.84;;;6.46;100.00
63903;BME280;50072;50.678;13.938;2022-10-01T06:37:59;99200.59;;;6.49;100.00
63903;BME280;50072;50.678;13.938;2022-10-01T06:40:28;99194.28;;;6.56;100.00
63903;BME280;50072;50.678;13.938;2022-10-01T06:42:54;99192.41;;;6.61;99.68
63903;BME280;50072;50.678;13.938;2022-10-01T06:45:24;99199.41;;;6.68;100.00
63903;BME280;50072;50.678;13.938;2022-10-01T06:47:57;99186.81;;;6.77;100.00
63903;BME280;50072;50.678;13.938;2022-10-01T06:50:24;99189.31;;;6.87;100.00
63903;BME280;50072;50.678;13.938;2022-10-01T06:52:51;99194.47;;;6.95;99.63
63903;BME280;50072;50.678;13.938;2022-10-01T06:55:17;99188.09;;;7.05;100.00
63903;BME280;50072;50.678;13.938;2022-10-01T06:57:44;99192.38;;;7.14;99.84
63903;BME280;50072;50.678;13.938;2022-10-01T07:00:10;99192.25;;;7.20;99.78
63903;BME280;50072;50.678;13.938;2022-10-01T07:02:36;99199.31;;;7.23;97.78
63903;BME280;50072;50.678;13.938;2022-10-01T07:05:02;99197.56;;;7.20;97.20
63903;BME280;50072;50.678;13.938;2022-10-01T07:07:33;99200.31;;;7.16;97.45
63903;BME280;50072;50.678;13.938;2022-10-01T07:10:00;99187.13;;;7.09;98.24
63903;BME280;50072;50.678;13.938;2022-10-01T07:12:26;99185.38;;;7.08;98.61
63903;BME280;50072;50.678;13.938;2022-10-01T07:14:52;99171.94;;;7.15;98.51
63903;BME280;50072;50.678;13.938;2022-10-01T07:17:19;99171.81;;;7.21;98.70
63903;BME280;50072;50.678;13.938;2022-10-01T07:19:45;99161.09;;;7.25;98.92
63903;BME280;50072;50.678;13.938;2022-10-01T07:22:10;99156.63;;;7.28;99.36
63903;BME280;50072;50.678;13.938;2022-10-01T07:24:36;99167.97;;;7.37;99.17
63903;BME280;50072;50.678;13.938;2022-10-01T07:27:02;99154.56;;;7.42;98.85
63903;BME280;50072;50.678;13.938;2022-10-01T07:29:29;99156.19;;;7.49;99.24
63903;BME280;50072;50.678;13.938;2022-10-01T07:31:59;99142.72;;;7.57;99.76
63903;BME280;50072;50.678;13.938;2022-10-01T07:34:26;99142.56;;;7.63;98.40
63903;BME280;50072;50.678;13.938;2022-10-01T07:36:53;99130.00;;;7.70;98.17
63903;BME280;50072;50.678;13.938;2022-10-01T07:39:20;99138.72;;;7.76;97.79
63903;BME280;50072;50.678;13.938;2022-10-01T07:41:45;99139.50;;;7.82;97.92
63903;BME280;50072;50.678;13.938;2022-10-01T07:44:11;99139.25;;;7.94;97.04
63903;BME280;50072;50.678;13.938;2022-10-01T07:46:38;99138.09;;;8.04;96.90
63903;BME280;50072;50.678;13.938;2022-10-01T07:49:04;99130.97;;;8.05;96.19
63903;BME280;50072;50.678;13.938;2022-10-01T07:51:31;99130.78;;;8.14;96.86
63903;BME280;50072;50.678;13.938;2022-10-01T07:54:02;99115.66;;;8.15;95.69
63903;BME280;50072;50.678;13.938;2022-10-01T07:56:29;99112.03;;;8.17;95.60
63903;BME280;50072;50.678;13.938;2022-10-01T07:58:56;99116.34;;;8.23;95.06
63903;BME280;50072;50.678;13.938;2022-10-01T08:01:23;99113.53;;;8.29;95.43
63903;BME280;50072;50.678;13.938;2022-10-01T08:03:51;99107.88;;;8.41;95.46
63903;BME280;50072;50.678;13.938;2022-10-01T08:06:24;99110.50;;;8.43;93.94
63903;BME280;50072;50.678;13.938;2022-10-01T08:11:54;99105.31;;;8.38;95.44
63903;BME280;50072;50.678;13.938;2022-10-01T08:14:21;99122.94;;;8.45;95.57
63903;BME280;50072;50.678;13.938;2022-10-01T08:16:54;99114.13;;;8.40;94.96
63903;BME280;50072;50.678;13.938;2022-10-01T08:19:47;99106.94;;;8.45;95.65
63903;BME280;50072;50.678;13.938;2022-10-01T08:22:24;99103.19;;;8.53;95.62
63903;BME280;50072;50.678;13.938;2022-10-01T08:24:51;99096.91;;;8.55;94.38
63903;BME280;50072;50.678;13.938;2022-10-01T08:27:25;99094.34;;;8.51;94.69
63903;BME280;50072;50.678;13.938;2022-10-01T08:29:54;99087.91;;;8.59;95.38
63903;BME280;50072;50.678;13.938;2022-10-01T08:32:22;99075.31;;;8.64;95.26
63903;BME280;50072;50.678;13.938;2022-10-01T08:34:50;99077.53;;;8.81;95.48
63903;BME280;50072;50.678;13.938;2022-10-01T08:37:26;99078.06;;;8.94;95.00
63903;BME280;50072;50.678;13.938;2022-10-01T08:39:52;99070.53;;;9.09;93.52
63903;BME280;50072;50.678;13.938;2022-10-01T08:45:45;99066.47;;;9.27;93.28
63903;BME280;50072;50.678;13.938;2022-10-01T08:51:24;99061.53;;;9.43;93.30
63903;BME280;50072;50.678;13.938;2022-10-01T08:54:15;99057.03;;;9.45;92.47
63903;BME280;50072;50.678;13.938;2022-10-01T08:56:54;99059.00;;;9.38;92.34
63903;BME280;50072;50.678;13.938;2022-10-01T08:59:45;99053.66;;;9.38;93.39
63903;BME280;50072;50.678;13.938;2022-10-01T09:02:28;99049.44;;;9.31;92.27
63903;BME280;50072;50.678;13.938;2022-10-01T09:11:33;99041.69;;;9.52;92.25
63903;BME280;50072;50.678;13.938;2022-10-01T09:17:04;99027.47;;;9.79;92.32
63903;BME280;50072;50.678;13.938;2022-10-01T09:19:55;99026.75;;;10.01;92.92
63903;BME280;50072;50.678;13.938;2022-10-01T09:28:01;99009.25;;;10.44;90.07
63903;BME280;50072;50.678;13.938;2022-10-01T09:30:51;99009.06;;;10.50;89.52
63903;BME280;50072;50.678;13.938;2022-10-01T09:33:41;99006.72;;;10.66;88.93
63903;BME280;50072;50.678;13.938;2022-10-01T09:42:18;98997.19;;;11.30;88.62
63903;BME280;50072;50.678;13.938;2022-10-01T09:44:45;98987.88;;;11.63;86.12
63903;BME280;50072;50.678;13.938;2022-10-01T09:47:17;99009.50;;;11.36;85.05
63903;BME280;50072;50.678;13.938;2022-10-01T09:49:44;98997.66;;;11.18;85.71
63903;BME280;50072;50.678;13.938;2022-10-01T09:52:43;98992.16;;;10.99;86.05
63903;BME280;50072;50.678;13.938;2022-10-01T09:55:46;98981.66;;;10.93;87.19
63903;BME280;50072;50.678;13.938;2022-10-01T09:58:26;98969.53;;;10.82;87.42
63903;BME280;50072;50.678;13.938;2022-10-01T10:00:54;98970.59;;;10.78;88.16
63903;BME280;50072;50.678;13.938;2022-10-01T10:03:27;98968.69;;;10.82;88.91
63903;BME280;50072;50.678;13.938;2022-10-01T10:05:56;98967.66;;;10.84;88.05
63903;BME280;50072;50.678;13.938;2022-10-01T10:08:35;98972.94;;;10.87;87.99
63903;BME280;50072;50.678;13.938;2022-10-01T10:11:04;98971.97;;;10.88;88.47
63903;BME280;50072;50.678;13.938;2022-10-01T10:13:38;98966.53;;;10.92;88.78
63903;BME280;50072;50.678;13.938;2022-10-01T10:16:15;98951.41;;;10.91;89.06
63903;BME280;50072;50.678;13.938;2022-10-01T10:18:45;98951.34;;;10.92;89.21
63903;BME280;50072;50.678;13.938;2022-10-01T10:21:23;98952.25;;;10.91;88.27
63903;BME280;50072;50.678;13.938;2022-10-01T10:23:57;98945.91;;;10.94;89.08
63903;BME280;50072;50.678;13.938;2022-10-01T10:26:50;98945.81;;;10.97;88.95
63903;BME280;50072;50.678;13.938;2022-10-01T10:29:36;98943.00;;;11.00;89.32
63903;BME280;50072;50.678;13.938;2022-10-01T10:32:35;98940.09;;;11.06;88.80
63903;BME280;50072;50.678;13.938;2022-10-01T10:35:02;98930.19;;;11.08;89.12
63903;BME280;50072;50.678;13.938;2022-10-01T10:37:48;98925.53;;;11.13;89.78
63903;BME280;50072;50.678;13.938;2022-10-01T10:40:24;98921.81;;;11.17;89.64
63903;BME280;50072;50.678;13.938;2022-10-01T10:42:55;98923.66;;;11.15;89.61
63903;BME280;50072;50.678;13.938;2022-10-01T10:45:44;98930.78;;;11.16;89.69
63903;BME280;50072;50.678;13.938;2022-10-01T10:48:26;98930.91;;;11.13;89.47
63903;BME280;50072;50.678;13.938;2022-10-01T10:53:54;98903.41;;;11.08;90.00
63903;BME280;50072;50.678;13.938;2022-10-01T10:56:22;98898.75;;;11.13;90.15
63903;BME280;50072;50.678;13.938;2022-10-01T10:58:54;98896.03;;;11.15;88.51
63903;BME280;50072;50.678;13.938;2022-10-01T11:01:44;98896.88;;;11.15;89.76
63903;BME280;50072;50.678;13.938;2022-10-01T11:04:28;98888.28;;;11.07;89.74
63903;BME280;50072;50.678;13.938;2022-10-01T11:07:18;98898.88;;;11.10;90.61
63903;BME280;50072;50.678;13.938;2022-10-01T11:39:44;98871.72;;;11.19;95.54
63903;BME280;50072;50.678;13.938;2022-10-01T11:42:20;98864.47;;;11.21;96.44
63903;BME280;50072;50.678;13.938;2022-10-01T11:45:00;98863.63;;;11.21;94.81
63903;BME280;50072;50.678;13.938;2022-10-01T11:48:06;98862.75;;;11.20;95.77
63903;BME280;50072;50.678;13.938;2022-10-01T11:50:47;98861.81;;;11.21;97.15
63903;BME280;50072;50.678;13.938;2022-10-01T11:53:28;98855.53;;;11.22;95.86
63903;BME280;50072;50.678;13.938;2022-10-01T11:56:16;98855.38;;;11.26;97.29
63903;BME280;50072;50.678;13.938;2022-10-01T12:01:56;98860.66;;;11.29;96.35
63903;BME280;50072;50.678;13.938;2022-10-01T12:08:06;98861.78;;;11.23;96.01
63903;BME280;50072;50.678;13.938;2022-10-01T12:17:27;98857.63;;;11.14;96.86
63903;BME280;50072;50.678;13.938;2022-10-01T12:20:34;98859.66;;;11.09;96.03
63903;BME280;50072;50.678;13.938;2022-10-01T12:23:18;98859.88;;;11.03;95.51
63903;BME280;50072;50.678;13.938;2022-10-01T12:29:27;98855.63;;;10.97;97.32
63903;BME280;50072;50.678;13.938;2022-10-01T12:39:00;98849.78;;;10.87;97.82
63903;BME280;50072;50.678;13.938;2022-10-01T12:41:21;98864.97;;;10.87;96.68
63903;BME280;50072;50.678;13.938;2022-10-01T13:17:33;98842.59;;;11.12;100.00
63903;BME280;50072;50.678;13.938;2022-10-01T13:23:14;98831.69;;;11.16;99.69
63903;BME280;50072;50.678;13.938;2022-10-01T13:28:19;98824.63;;;11.14;98.66
63903;BME280;50072;50.678;13.938;2022-10-01T13:31:11;98827.31;;;11.14;98.36
63903;BME280;50072;50.678;13.938;2022-10-01T13:33:55;98829.19;;;11.12;98.44
63903;BME280;50072;50.678;13.938;2022-10-01T13:36:45;98831.13;;;11.08;98.19
63903;BME280;50072;50.678;13.938;2022-10-01T13:39:22;98835.53;;;11.09;99.81
63903;BME280;50072;50.678;13.938;2022-10-01T13:44:51;98823.78;;;11.13;100.00
63903;BME280;50072;50.678;13.938;2022-10-01T13:47:24;98827.38;;;11.12;99.48
63903;BME280;50072;50.678;13.938;2022-10-01T13:50:00;98835.34;;;11.14;100.00
63903;BME280;50072;50.678;13.938;2022-10-01T13:52:45;98840.63;;;11.15;100.00
63903;BME280;50072;50.678;13.938;2022-10-01T13:55:29;98830.84;;;11.14;100.00
63903;BME280;50072;50.678;13.938;2022-10-01T14:06:31;98818.41;;;11.13;100.00
63903;BME280;50072;50.678;13.938;2022-10-01T14:12:32;98818.56;;;11.10;100.00
63903;BME280;50072;50.678;13.938;2022-10-01T14:15:21;98826.75;;;11.05;99.90
63903;BME280;50072;50.678;13.938;2022-10-01T14:18:29;98816.09;;;11.04;100.00
63903;BME280;50072;50.678;13.938;2022-10-01T14:39:25;98805.59;;;10.99;100.00
63903;BME280;50072;50.678;13.938;2022-10-01T14:41:56;98797.63;;;10.98;100.00
63903;BME280;50072;50.678;13.938;2022-10-01T14:44:42;98801.09;;;11.00;100.00
63903;BME280;50072;50.678;13.938;2022-10-01T14:47:25;98801.91;;;11.02;100.00
63903;BME280;50072;50.678;13.938;2022-10-01T14:49:54;98801.91;;;11.02;100.00
63903;BME280;50072;50.678;13.938;2022-10-01T14:52:28;98806.31;;;11.03;100.00
63903;BME280;50072;50.678;13.938;2022-10-01T14:57:45;98808.06;;;11.04;100.00
63903;BME280;50072;50.678;13.938;2022-10-01T15:00:15;98808.06;;;11.04;100.00
63903;BME280;50072;50.678;13.938;2022-10-01T15:02:52;98805.38;;;11.04;100.00
63903;BME280;50072;50.678;13.938;2022-10-01T15:05:34;98802.72;;;11.04;100.00
63903;BME280;50072;50.678;13.938;2022-10-01T15:08:23;98811.56;;;11.06;100.00
63903;BME280;50072;50.678;13.938;2022-10-01T15:10:58;98806.22;;;11.06;100.00
63903;BME280;50072;50.678;13.938;2022-10-01T15:17:32;98796.25;;;11.10;100.00
63903;BME280;50072;50.678;13.938;2022-10-01T15:22:54;98798.97;;;11.08;100.00
63903;BME280;50072;50.678;13.938;2022-10-01T15:25:27;98802.59;;;11.07;100.00
63903;BME280;50072;50.678;13.938;2022-10-01T15:27:54;98801.66;;;11.08;100.00
63903;BME280;50072;50.678;13.938;2022-10-01T15:30:44;98803.47;;;11.08;100.00
63903;BME280;50072;50.678;13.938;2022-10-01T15:33:26;98795.38;;;11.09;100.00
63903;BME280;50072;50.678;13.938;2022-10-01T15:36:00;98800.72;;;11.09;100.00
63903;BME280;50072;50.678;13.938;2022-10-01T15:38:35;98800.72;;;11.09;100.00
63903;BME280;50072;50.678;13.938;2022-10-01T15:41:17;98799.91;;;11.07;100.00
63903;BME280;50072;50.678;13.938;2022-10-01T15:43:45;98805.25;;;11.07;100.00
63903;BME280;50072;50.678;13.938;2022-10-01T15:46:26;98799.91;;;11.07;100.00
63903;BME280;50072;50.678;13.938;2022-10-01T15:49:24;98804.47;;;11.05;100.00
63903;BME280;50072;50.678;13.938;2022-10-01T15:52:00;98799.13;;;11.05;100.00
63903;BME280;50072;50.678;13.938;2022-10-01T15:55:10;98800.97;;;11.03;100.00
63903;BME280;50072;50.678;13.938;2022-10-01T15:57:45;98800.16;;;11.01;100.00
63903;BME280;50072;50.678;13.938;2022-10-01T16:00:38;98800.31;;;10.98;100.00
63903;BME280;50072;50.678;13.938;2022-10-01T16:03:18;98797.88;;;10.92;100.00
63903;BME280;50072;50.678;13.938;2022-10-01T16:05:49;98805.84;;;10.93;100.00
63903;BME280;50072;50.678;13.938;2022-10-01T16:08:24;98812.06;;;10.94;100.00
63903;BME280;50072;50.678;13.938;2022-10-01T16:11:23;98808.59;;;10.92;100.00
63903;BME280;50072;50.678;13.938;2022-10-01T16:23:23;98811.50;;;10.85;100.00
63903;BME280;50072;50.678;13.938;2022-10-01T16:25:54;98803.59;;;10.82;100.00
63903;BME280;50072;50.678;13.938;2022-10-01T16:28:25;98819.66;;;10.82;100.00
63903;BME280;50072;50.678;13.938;2022-10-01T16:30:54;98810.84;;;10.79;100.00
63903;BME280;50072;50.678;13.938;2022-10-01T16:33:44;98818.03;;;10.78;100.00
63903;BME280;50072;50.678;13.938;2022-10-01T16:36:24;98813.59;;;10.77;100.00
63903;BME280;50072;50.678;13.938;2022-10-01T16:38:54;98810.44;;;10.67;100.00
63903;BME280;50072;50.678;13.938;2022-10-01T16:41:23;98814.69;;;10.73;100.00
63903;BME280;50072;50.678;13.938;2022-10-01T16:46:54;98823.75;;;10.69;100.00
63903;BME280;50072;50.678;13.938;2022-10-01T16:49:21;98812.34;;;10.64;100.00
63903;BME280;50072;50.678;13.938;2022-10-01T16:51:54;98838.06;;;10.68;100.00
63903;BME280;50072;50.678;13.938;2022-10-01T16:54:44;98834.47;;;10.69;100.00